sensor_id;sensor_type;location;lat;lon;timestamp;P1;durP1;ratioP1;P2;durP2;ratioP2
56307;SDS011;42217;50.422;7.210;2023-08-12T00:01:22;9.40;;;5.85;;
56307;SDS011;42217;50.422;7.210;2023-08-12T00:03:50;12.60;;;6.47;;
56307;SDS011;42217;50.422;7.210;2023-08-12T00:06:15;9.70;;;7.07;;
56307;SDS011;42217;50.422;7.210;2023-08-12T00:08:41;11.43;;;6.03;;
56307;SDS011;42217;50.422;7.210;2023-08-12T00:11:07;10.02;;;6.90;;
56307;SDS011;42217;50.422;7.210;2023-08-12T00:13:33;14.75;;;8.02;;
56307;SDS011;42217;50.422;7.210;2023-08-12T00:15:58;18.00;;;7.72;;
56307;SDS011;42217;50.422;7.210;2023-08-12T00:18:24;20.02;;;8.48;;
56307;SDS011;42217;50.422;7.210;2023-08-12T00:20:50;18.50;;;10.75;;
56307;SDS011;42217;50.422;7.210;2023-08-12T00:23:16;17.95;;;11.73;;
56307;SDS011;42217;50.422;7.210;2023-08-12T00:25:42;18.83;;;12.63;;
56307;SDS011;42217;50.422;7.210;2023-08-12T00:28:07;19.42;;;13.95;;
56307;SDS011;42217;50.422;7.210;2023-08-12T00:30:33;19.05;;;14.35;;
56307;SDS011;42217;50.422;7.210;2023-08-12T00:32:59;23.88;;;15.55;;
56307;SDS011;42217;50.422;7.210;2023-08-12T00:35:24;22.73;;;17.23;;
56307;SDS011;42217;50.422;7.210;2023-08-12T00:37:50;24.58;;;17.98;;
56307;SDS011;42217;50.422;7.210;2023-08-12T00:40:15;22.45;;;18.60;;
56307;SDS011;42217;50.422;7.210;2023-08-12T00:42:41;24.38;;;18.20;;
56307;SDS011;42217;50.422;7.210;2023-08-12T00:45:10;16.67;;;12.25;;
56307;SDS011;42217;50.422;7.210;2023-08-12T00:47:39;17.98;;;12.95;;
56307;SDS011;42217;50.422;7.210;2023-08-12T00:50:06;16.67;;;13.77;;
56307;SDS011;42217;50.422;7.210;2023-08-12T00:52:35;21.25;;;15.40;;
56307;SDS011;42217;50.422;7.210;2023-08-12T00:55:00;21.33;;;16.95;;
56307;SDS011;42217;50.422;7.210;2023-08-12T00:57:26;17.00;;;14.93;;
56307;SDS011;42217;50.422;7.210;2023-08-12T00:59:52;19.38;;;15.45;;
56307;SDS011;42217;50.422;7.210;2023-08-12T01:02:20;19.38;;;14.63;;
56307;SDS011;42217;50.422;7.210;2023-08-12T01:04:46;20.38;;;16.33;;
56307;SDS011;42217;50.422;7.210;2023-08-12T01:07:12;16.02;;;14.32;;
56307;SDS011;42217;50.422;7.210;2023-08-12T01:09:37;17.02;;;14.35;;
56307;SDS011;42217;50.422;7.210;2023-08-12T01:17:22;15.77;;;11.93;;
56307;SDS011;42217;50.422;7.210;2023-08-12T01:19:48;13.55;;;11.40;;
56307;SDS011;42217;50.422;7.210;2023-08-12T01:22:15;11.27;;;10.05;;
56307;SDS011;42217;50.422;7.210;2023-08-12T01:24:45;18.00;;;12.68;;
56307;SDS011;42217;50.422;7.210;2023-08-12T01:27:11;15.38;;;11.40;;
56307;SDS011;42217;50.422;7.210;2023-08-12T01:29:38;15.05;;;11.68;;
56307;SDS011;42217;50.422;7.210;2023-08-12T01:37:46;12.77;;;9.52;;
56307;SDS011;42217;50.422;7.210;2023-08-12T01:40:14;11.90;;;10.68;;
56307;SDS011;42217;50.422;7.210;2023-08-12T01:42:41;10.35;;;9.32;;
56307;SDS011;42217;50.422;7.210;2023-08-12T01:45:08;5.80;;;4.93;;
56307;SDS011;42217;50.422;7.210;2023-08-12T01:47:33;4.68;;;3.45;;
56307;SDS011;42217;50.422;7.210;2023-08-12T01:49:59;5.88;;;5.28;;
56307;SDS011;42217;50.422;7.210;2023-08-12T01:52:25;7.82;;;5.32;;
56307;SDS011;42217;50.422;7.210;2023-08-12T01:54:51;9.02;;;5.50;;
56307;SDS011;42217;50.422;7.210;2023-08-12T01:57:16;7.05;;;4.20;;
56307;SDS011;42217;50.422;7.210;2023-08-12T01:59:42;6.65;;;4.00;;
56307;SDS011;42217;50.422;7.210;2023-08-12T02:02:11;5.80;;;5.30;;
56307;SDS011;42217;50.422;7.210;2023-08-12T02:04:38;9.30;;;5.18;;
56307;SDS011;42217;50.422;7.210;2023-08-12T02:07:05;5.63;;;4.22;;
56307;SDS011;42217;50.422;7.210;2023-08-12T02:09:30;4.90;;;3.70;;
56307;SDS011;42217;50.422;7.210;2023-08-12T02:11:56;4.35;;;3.95;;
56307;SDS011;42217;50.422;7.210;2023-08-12T02:14:22;7.13;;;4.22;;
56307;SDS011;42217;50.422;7.210;2023-08-12T02:16:48;5.30;;;3.80;;
56307;SDS011;42217;50.422;7.210;2023-08-12T02:19:14;3.97;;;2.97;;
56307;SDS011;42217;50.422;7.210;2023-08-12T02:21:39;4.03;;;3.60;;
56307;SDS011;42217;50.422;7.210;2023-08-12T02:24:06;3.92;;;3.28;;
56307;SDS011;42217;50.422;7.210;2023-08-12T02:26:32;8.07;;;3.78;;
56307;SDS011;42217;50.422;7.210;2023-08-12T02:28:58;4.88;;;4.05;;
56307;SDS011;42217;50.422;7.210;2023-08-12T02:31:23;8.23;;;4.80;;
56307;SDS011;42217;50.422;7.210;2023-08-12T02:33:49;9.23;;;6.45;;
56307;SDS011;42217;50.422;7.210;2023-08-12T02:36:15;9.73;;;6.45;;
56307;SDS011;42217;50.422;7.210;2023-08-12T02:38:41;7.03;;;6.22;;
56307;SDS011;42217;50.422;7.210;2023-08-12T02:41:06;7.05;;;6.35;;
56307;SDS011;42217;50.422;7.210;2023-08-12T02:43:32;6.65;;;6.05;;
56307;SDS011;42217;50.422;7.210;2023-08-12T02:45:58;6.45;;;5.55;;
56307;SDS011;42217;50.422;7.210;2023-08-12T02:48:23;6.85;;;4.65;;
56307;SDS011;42217;50.422;7.210;2023-08-12T02:50:49;5.22;;;4.57;;
56307;SDS011;42217;50.422;7.210;2023-08-12T02:53:15;4.63;;;4.10;;
56307;SDS011;42217;50.422;7.210;2023-08-12T02:55:41;6.35;;;4.53;;
56307;SDS011;42217;50.422;7.210;2023-08-12T02:58:06;8.40;;;5.03;;
56307;SDS011;42217;50.422;7.210;2023-08-12T03:00:32;5.70;;;4.93;;
56307;SDS011;42217;50.422;7.210;2023-08-12T03:02:58;5.90;;;5.35;;
56307;SDS011;42217;50.422;7.210;2023-08-12T03:05:23;10.77;;;5.85;;
56307;SDS011;42217;50.422;7.210;2023-08-12T03:07:49;10.63;;;5.45;;
56307;SDS011;42217;50.422;7.210;2023-08-12T03:10:17;7.45;;;4.63;;
56307;SDS011;42217;50.422;7.210;2023-08-12T03:12:43;8.80;;;4.88;;
56307;SDS011;42217;50.422;7.210;2023-08-12T03:15:08;5.78;;;5.18;;
56307;SDS011;42217;50.422;7.210;2023-08-12T03:17:35;5.53;;;5.03;;
56307;SDS011;42217;50.422;7.210;2023-08-12T03:20:01;5.15;;;3.85;;
56307;SDS011;42217;50.422;7.210;2023-08-12T03:22:30;6.95;;;3.83;;
56307;SDS011;42217;50.422;7.210;2023-08-12T03:24:55;7.28;;;4.00;;
56307;SDS011;42217;50.422;7.210;2023-08-12T03:27:21;5.80;;;3.40;;
56307;SDS011;42217;50.422;7.210;2023-08-12T03:29:47;5.38;;;3.40;;
56307;SDS011;42217;50.422;7.210;2023-08-12T03:32:12;7.32;;;3.63;;
56307;SDS011;42217;50.422;7.210;2023-08-12T03:34:38;5.80;;;3.83;;
56307;SDS011;42217;50.422;7.210;2023-08-12T03:37:04;5.72;;;3.58;;
56307;SDS011;42217;50.422;7.210;2023-08-12T03:39:30;7.55;;;3.17;;
56307;SDS011;42217;50.422;7.210;2023-08-12T03:41:55;4.47;;;3.78;;
56307;SDS011;42217;50.422;7.210;2023-08-12T03:44:21;4.28;;;3.60;;
56307;SDS011;42217;50.422;7.210;2023-08-12T03:46:47;5.30;;;3.47;;
56307;SDS011;42217;50.422;7.210;2023-08-12T03:49:13;3.50;;;3.20;;
56307;SDS011;42217;50.422;7.210;2023-08-12T03:51:38;4.28;;;3.42;;
56307;SDS011;42217;50.422;7.210;2023-08-12T03:54:04;5.13;;;3.75;;
56307;SDS011;42217;50.422;7.210;2023-08-12T03:56:30;5.78;;;4.70;;
56307;SDS011;42217;50.422;7.210;2023-08-12T03:58:56;6.05;;;4.45;;
56307;SDS011;42217;50.422;7.210;2023-08-12T04:01:22;7.43;;;4.32;;
56307;SDS011;42217;50.422;7.210;2023-08-12T04:03:47;6.32;;;3.67;;
56307;SDS011;42217;50.422;7.210;2023-08-12T04:06:13;6.75;;;5.05;;
56307;SDS011;42217;50.422;7.210;2023-08-12T04:08:39;4.15;;;3.72;;
56307;SDS011;42217;50.422;7.210;2023-08-12T04:11:04;5.63;;;3.50;;
56307;SDS011;42217;50.422;7.210;2023-08-12T04:13:30;4.68;;;4.13;;
56307;SDS011;42217;50.422;7.210;2023-08-12T04:15:56;10.50;;;6.60;;
56307;SDS011;42217;50.422;7.210;2023-08-12T04:18:21;11.32;;;6.05;;
56307;SDS011;42217;50.422;7.210;2023-08-12T04:20:51;8.25;;;5.78;;
56307;SDS011;42217;50.422;7.210;2023-08-12T04:23:17;10.60;;;5.82;;
56307;SDS011;42217;50.422;7.210;2023-08-12T04:25:44;7.03;;;6.22;;
56307;SDS011;42217;50.422;7.210;2023-08-12T04:28:12;8.82;;;6.15;;
56307;SDS011;42217;50.422;7.210;2023-08-12T04:30:44;8.48;;;5.65;;
56307;SDS011;42217;50.422;7.210;2023-08-12T04:33:15;7.15;;;4.13;;
56307;SDS011;42217;50.422;7.210;2023-08-12T04:35:41;7.90;;;5.10;;
56307;SDS011;42217;50.422;7.210;2023-08-12T04:38:07;5.45;;;4.88;;
56307;SDS011;42217;50.422;7.210;2023-08-12T04:40:33;4.05;;;3.65;;
56307;SDS011;42217;50.422;7.210;2023-08-12T04:42:59;6.07;;;4.40;;
56307;SDS011;42217;50.422;7.210;2023-08-12T04:45:25;4.93;;;4.43;;
56307;SDS011;42217;50.422;7.210;2023-08-12T04:47:51;8.25;;;5.07;;
56307;SDS011;42217;50.422;7.210;2023-08-12T04:50:17;5.30;;;4.22;;
56307;SDS011;42217;50.422;7.210;2023-08-12T04:52:42;9.88;;;5.15;;
56307;SDS011;42217;50.422;7.210;2023-08-12T04:55:08;7.82;;;5.10;;
56307;SDS011;42217;50.422;7.210;2023-08-12T04:57:37;6.68;;;4.63;;
56307;SDS011;42217;50.422;7.210;2023-08-12T05:00:03;9.02;;;4.60;;
56307;SDS011;42217;50.422;7.210;2023-08-12T05:02:33;6.78;;;4.18;;
56307;SDS011;42217;50.422;7.210;2023-08-12T05:04:58;6.38;;;4.28;;
56307;SDS011;42217;50.422;7.210;2023-08-12T05:07:24;6.47;;;4.10;;
56307;SDS011;42217;50.422;7.210;2023-08-12T05:09:50;6.40;;;4.50;;
56307;SDS011;42217;50.422;7.210;2023-08-12T05:12:15;6.80;;;4.07;;
56307;SDS011;42217;50.422;7.210;2023-08-12T05:14:41;8.73;;;6.40;;
56307;SDS011;42217;50.422;7.210;2023-08-12T05:17:07;4.70;;;4.10;;
56307;SDS011;42217;50.422;7.210;2023-08-12T05:19:33;5.70;;;4.45;;
56307;SDS011;42217;50.422;7.210;2023-08-12T05:21:58;3.97;;;3.30;;
56307;SDS011;42217;50.422;7.210;2023-08-12T05:24:24;6.60;;;3.63;;
56307;SDS011;42217;50.422;7.210;2023-08-12T05:26:50;3.08;;;2.40;;
56307;SDS011;42217;50.422;7.210;2023-08-12T05:29:15;4.53;;;3.03;;
56307;SDS011;42217;50.422;7.210;2023-08-12T05:31:41;4.05;;;2.35;;
56307;SDS011;42217;50.422;7.210;2023-08-12T05:34:07;4.30;;;2.40;;
56307;SDS011;42217;50.422;7.210;2023-08-12T05:36:32;4.78;;;2.78;;
56307;SDS011;42217;50.422;7.210;2023-08-12T05:38:58;6.50;;;3.35;;
56307;SDS011;42217;50.422;7.210;2023-08-12T05:41:24;5.22;;;2.50;;
56307;SDS011;42217;50.422;7.210;2023-08-12T05:43:49;6.32;;;3.92;;
56307;SDS011;42217;50.422;7.210;2023-08-12T05:46:15;5.03;;;2.83;;
56307;SDS011;42217;50.422;7.210;2023-08-12T05:48:41;6.60;;;3.47;;
56307;SDS011;42217;50.422;7.210;2023-08-12T05:51:07;5.28;;;3.33;;
56307;SDS011;42217;50.422;7.210;2023-08-12T05:53:32;5.18;;;3.38;;
56307;SDS011;42217;50.422;7.210;2023-08-12T05:55:58;6.80;;;3.42;;
56307;SDS011;42217;50.422;7.210;2023-08-12T05:58:24;8.43;;;2.85;;
56307;SDS011;42217;50.422;7.210;2023-08-12T06:00:50;4.28;;;2.67;;
56307;SDS011;42217;50.422;7.210;2023-08-12T06:03:16;6.32;;;3.08;;
56307;SDS011;42217;50.422;7.210;2023-08-12T06:05:43;6.22;;;2.88;;
56307;SDS011;42217;50.422;7.210;2023-08-12T06:08:10;7.18;;;2.92;;
56307;SDS011;42217;50.422;7.210;2023-08-12T06:10:36;6.65;;;3.72;;
56307;SDS011;42217;50.422;7.210;2023-08-12T06:13:01;5.45;;;2.65;;
56307;SDS011;42217;50.422;7.210;2023-08-12T06:15:27;3.35;;;2.55;;
56307;SDS011;42217;50.422;7.210;2023-08-12T06:17:53;5.90;;;3.13;;
56307;SDS011;42217;50.422;7.210;2023-08-12T06:20:18;5.75;;;2.33;;
56307;SDS011;42217;50.422;7.210;2023-08-12T06:22:44;5.28;;;2.60;;
56307;SDS011;42217;50.422;7.210;2023-08-12T06:25:10;4.03;;;2.70;;
56307;SDS011;42217;50.422;7.210;2023-08-12T06:27:35;7.32;;;2.67;;
56307;SDS011;42217;50.422;7.210;2023-08-12T06:30:01;6.57;;;2.78;;
56307;SDS011;42217;50.422;7.210;2023-08-12T06:32:27;8.20;;;2.53;;
56307;SDS011;42217;50.422;7.210;2023-08-12T06:34:53;3.53;;;2.25;;
56307;SDS011;42217;50.422;7.210;2023-08-12T06:37:18;3.72;;;2.55;;
56307;SDS011;42217;50.422;7.210;2023-08-12T06:39:44;6.63;;;2.00;;
56307;SDS011;42217;50.422;7.210;2023-08-12T06:42:10;2.80;;;2.05;;
56307;SDS011;42217;50.422;7.210;2023-08-12T06:44:35;2.85;;;1.95;;
56307;SDS011;42217;50.422;7.210;2023-08-12T06:47:01;4.93;;;1.85;;
56307;SDS011;42217;50.422;7.210;2023-08-12T06:49:26;5.05;;;1.73;;
56307;SDS011;42217;50.422;7.210;2023-08-12T06:51:52;5.22;;;1.85;;
56307;SDS011;42217;50.422;7.210;2023-08-12T06:54:18;2.20;;;1.60;;
56307;SDS011;42217;50.422;7.210;2023-08-12T06:56:43;2.90;;;1.50;;
56307;SDS011;42217;50.422;7.210;2023-08-12T06:59:09;4.05;;;2.05;;
56307;SDS011;42217;50.422;7.210;2023-08-12T07:01:36;4.13;;;2.20;;
56307;SDS011;42217;50.422;7.210;2023-08-12T07:04:01;3.13;;;1.52;;
56307;SDS011;42217;50.422;7.210;2023-08-12T07:06:27;3.17;;;1.52;;
56307;SDS011;42217;50.422;7.210;2023-08-12T07:08:52;5.03;;;1.90;;
56307;SDS011;42217;50.422;7.210;2023-08-12T07:11:18;2.00;;;1.35;;
56307;SDS011;42217;50.422;7.210;2023-08-12T07:13:44;2.60;;;1.80;;
56307;SDS011;42217;50.422;7.210;2023-08-12T07:16:11;2.20;;;1.73;;
56307;SDS011;42217;50.422;7.210;2023-08-12T07:18:37;3.75;;;1.50;;
56307;SDS011;42217;50.422;7.210;2023-08-12T07:21:02;3.65;;;1.58;;
56307;SDS011;42217;50.422;7.210;2023-08-12T07:23:29;5.18;;;1.50;;
56307;SDS011;42217;50.422;7.210;2023-08-12T07:25:54;3.28;;;1.67;;
56307;SDS011;42217;50.422;7.210;2023-08-12T07:28:20;6.45;;;1.70;;
56307;SDS011;42217;50.422;7.210;2023-08-12T07:30:47;2.13;;;1.42;;
56307;SDS011;42217;50.422;7.210;2023-08-12T07:33:14;3.70;;;1.63;;
56307;SDS011;42217;50.422;7.210;2023-08-12T07:35:39;7.10;;;2.22;;
56307;SDS011;42217;50.422;7.210;2023-08-12T07:38:06;5.43;;;1.95;;
56307;SDS011;42217;50.422;7.210;2023-08-12T07:40:31;3.40;;;2.50;;
56307;SDS011;42217;50.422;7.210;2023-08-12T07:42:57;2.97;;;1.38;;
56307;SDS011;42217;50.422;7.210;2023-08-12T07:45:23;3.10;;;1.58;;
56307;SDS011;42217;50.422;7.210;2023-08-12T07:47:49;2.80;;;1.17;;
56307;SDS011;42217;50.422;7.210;2023-08-12T07:50:15;3.08;;;1.70;;
56307;SDS011;42217;50.422;7.210;2023-08-12T07:52:40;2.08;;;1.40;;
56307;SDS011;42217;50.422;7.210;2023-08-12T07:55:06;4.90;;;1.45;;
56307;SDS011;42217;50.422;7.210;2023-08-12T07:57:32;2.22;;;1.10;;
56307;SDS011;42217;50.422;7.210;2023-08-12T07:59:58;2.42;;;1.35;;
56307;SDS011;42217;50.422;7.210;2023-08-12T08:02:23;2.50;;;1.40;;
56307;SDS011;42217;50.422;7.210;2023-08-12T08:04:49;3.20;;;1.95;;
56307;SDS011;42217;50.422;7.210;2023-08-12T08:07:15;2.75;;;1.50;;
56307;SDS011;42217;50.422;7.210;2023-08-12T08:09:41;6.05;;;2.00;;
56307;SDS011;42217;50.422;7.210;2023-08-12T08:12:08;1.85;;;1.20;;
56307;SDS011;42217;50.422;7.210;2023-08-12T08:14:34;3.05;;;1.50;;
56307;SDS011;42217;50.422;7.210;2023-08-12T08:17:00;3.15;;;2.00;;
56307;SDS011;42217;50.422;7.210;2023-08-12T08:19:26;3.92;;;1.45;;
56307;SDS011;42217;50.422;7.210;2023-08-12T08:21:52;2.03;;;1.40;;
56307;SDS011;42217;50.422;7.210;2023-08-12T08:24:18;3.22;;;1.85;;
56307;SDS011;42217;50.422;7.210;2023-08-12T08:26:44;6.85;;;1.33;;
56307;SDS011;42217;50.422;7.210;2023-08-12T08:29:12;6.13;;;1.50;;
56307;SDS011;42217;50.422;7.210;2023-08-12T08:31:38;3.35;;;1.60;;
56307;SDS011;42217;50.422;7.210;2023-08-12T08:34:03;2.63;;;1.38;;
56307;SDS011;42217;50.422;7.210;2023-08-12T08:36:29;3.92;;;1.40;;
56307;SDS011;42217;50.422;7.210;2023-08-12T08:38:55;3.55;;;1.17;;
56307;SDS011;42217;50.422;7.210;2023-08-12T08:41:21;2.72;;;1.23;;
56307;SDS011;42217;50.422;7.210;2023-08-12T08:43:47;3.15;;;1.23;;
56307;SDS011;42217;50.422;7.210;2023-08-12T08:46:16;6.03;;;1.35;;
56307;SDS011;42217;50.422;7.210;2023-08-12T08:48:42;1.98;;;1.30;;
56307;SDS011;42217;50.422;7.210;2023-08-12T08:51:09;4.10;;;1.38;;
56307;SDS011;42217;50.422;7.210;2023-08-12T08:53:39;6.78;;;1.35;;
56307;SDS011;42217;50.422;7.210;2023-08-12T08:56:06;5.20;;;1.63;;
56307;SDS011;42217;50.422;7.210;2023-08-12T08:58:33;2.63;;;1.15;;
56307;SDS011;42217;50.422;7.210;2023-08-12T09:00:59;6.35;;;1.40;;
56307;SDS011;42217;50.422;7.210;2023-08-12T09:03:26;3.45;;;1.70;;
56307;SDS011;42217;50.422;7.210;2023-08-12T09:05:52;4.45;;;1.10;;
56307;SDS011;42217;50.422;7.210;2023-08-12T09:08:20;2.60;;;1.27;;
56307;SDS011;42217;50.422;7.210;2023-08-12T09:10:47;4.28;;;1.42;;
56307;SDS011;42217;50.422;7.210;2023-08-12T09:13:13;2.05;;;0.80;;
56307;SDS011;42217;50.422;7.210;2023-08-12T09:15:41;4.80;;;1.20;;
56307;SDS011;42217;50.422;7.210;2023-08-12T09:18:06;3.10;;;1.05;;
56307;SDS011;42217;50.422;7.210;2023-08-12T09:20:33;2.90;;;0.90;;
56307;SDS011;42217;50.422;7.210;2023-08-12T09:22:59;3.47;;;0.93;;
56307;SDS011;42217;50.422;7.210;2023-08-12T09:25:28;1.60;;;1.15;;
56307;SDS011;42217;50.422;7.210;2023-08-12T09:27:55;2.83;;;1.10;;
56307;SDS011;42217;50.422;7.210;2023-08-12T09:30:23;2.90;;;1.00;;
56307;SDS011;42217;50.422;7.210;2023-08-12T09:33:01;3.17;;;1.70;;
56307;SDS011;42217;50.422;7.210;2023-08-12T09:35:35;2.88;;;0.93;;
56307;SDS011;42217;50.422;7.210;2023-08-12T09:38:06;3.00;;;0.70;;
56307;SDS011;42217;50.422;7.210;2023-08-12T09:40:36;1.42;;;0.88;;
56307;SDS011;42217;50.422;7.210;2023-08-12T09:43:02;1.27;;;0.80;;
56307;SDS011;42217;50.422;7.210;2023-08-12T09:45:29;2.40;;;1.33;;
56307;SDS011;42217;50.422;7.210;2023-08-12T09:47:56;1.40;;;1.27;;
56307;SDS011;42217;50.422;7.210;2023-08-12T09:50:23;3.53;;;1.52;;
56307;SDS011;42217;50.422;7.210;2023-08-12T09:52:52;3.25;;;1.25;;
56307;SDS011;42217;50.422;7.210;2023-08-12T09:55:20;2.22;;;1.05;;
56307;SDS011;42217;50.422;7.210;2023-08-12T09:57:48;1.70;;;0.57;;
56307;SDS011;42217;50.422;7.210;2023-08-12T10:00:18;2.33;;;0.93;;
56307;SDS011;42217;50.422;7.210;2023-08-12T10:02:46;3.05;;;0.60;;
56307;SDS011;42217;50.422;7.210;2023-08-12T10:05:33;1.83;;;0.60;;
56307;SDS011;42217;50.422;7.210;2023-08-12T10:07:59;1.55;;;0.80;;
56307;SDS011;42217;50.422;7.210;2023-08-12T10:10:28;1.55;;;0.75;;
56307;SDS011;42217;50.422;7.210;2023-08-12T10:12:55;1.67;;;0.80;;
56307;SDS011;42217;50.422;7.210;2023-08-12T10:15:24;5.35;;;1.02;;
56307;SDS011;42217;50.422;7.210;2023-08-12T10:17:51;1.73;;;0.70;;
56307;SDS011;42217;50.422;7.210;2023-08-12T10:20:22;2.67;;;1.02;;
56307;SDS011;42217;50.422;7.210;2023-08-12T10:22:49;3.38;;;0.68;;
56307;SDS011;42217;50.422;7.210;2023-08-12T10:25:15;0.98;;;0.77;;
56307;SDS011;42217;50.422;7.210;2023-08-12T10:27:44;1.38;;;0.52;;
56307;SDS011;42217;50.422;7.210;2023-08-12T10:30:10;1.55;;;0.80;;
56307;SDS011;42217;50.422;7.210;2023-08-12T10:32:38;1.88;;;0.93;;
56307;SDS011;42217;50.422;7.210;2023-08-12T10:35:04;3.17;;;0.98;;
56307;SDS011;42217;50.422;7.210;2023-08-12T10:37:32;1.88;;;0.63;;
56307;SDS011;42217;50.422;7.210;2023-08-12T10:39:59;1.67;;;0.93;;
56307;SDS011;42217;50.422;7.210;2023-08-12T10:45:08;0.82;;;0.68;;
56307;SDS011;42217;50.422;7.210;2023-08-12T10:47:42;1.38;;;0.70;;
56307;SDS011;42217;50.422;7.210;2023-08-12T10:50:22;3.05;;;0.95;;
56307;SDS011;42217;50.422;7.210;2023-08-12T10:52:53;2.60;;;1.02;;
56307;SDS011;42217;50.422;7.210;2023-08-12T10:55:20;6.70;;;1.20;;
56307;SDS011;42217;50.422;7.210;2023-08-12T10:57:49;3.00;;;0.98;;
56307;SDS011;42217;50.422;7.210;2023-08-12T11:00:17;1.42;;;1.05;;
56307;SDS011;42217;50.422;7.210;2023-08-12T11:02:51;3.22;;;1.00;;
56307;SDS011;42217;50.422;7.210;2023-08-12T11:05:18;1.60;;;1.10;;
56307;SDS011;42217;50.422;7.210;2023-08-12T11:10:32;3.47;;;1.50;;
56307;SDS011;42217;50.422;7.210;2023-08-12T11:12:59;3.50;;;1.48;;
56307;SDS011;42217;50.422;7.210;2023-08-12T11:15:35;4.32;;;1.52;;
56307;SDS011;42217;50.422;7.210;2023-08-12T11:18:03;2.90;;;1.10;;
56307;SDS011;42217;50.422;7.210;2023-08-12T11:20:30;2.95;;;1.15;;
56307;SDS011;42217;50.422;7.210;2023-08-12T11:22:55;3.72;;;1.33;;
56307;SDS011;42217;50.422;7.210;2023-08-12T11:25:23;3.00;;;1.27;;
56307;SDS011;42217;50.422;7.210;2023-08-12T11:27:49;5.25;;;1.33;;
56307;SDS011;42217;50.422;7.210;2023-08-12T11:30:16;1.90;;;1.20;;
56307;SDS011;42217;50.422;7.210;2023-08-12T11:32:47;2.13;;;1.00;;
56307;SDS011;42217;50.422;7.210;2023-08-12T11:35:17;2.33;;;1.02;;
56307;SDS011;42217;50.422;7.210;2023-08-12T11:37:45;4.82;;;1.75;;
56307;SDS011;42217;50.422;7.210;2023-08-12T11:40:15;2.15;;;1.20;;
56307;SDS011;42217;50.422;7.210;2023-08-12T11:42:43;4.13;;;1.40;;
56307;SDS011;42217;50.422;7.210;2023-08-12T11:45:10;2.88;;;0.80;;
56307;SDS011;42217;50.422;7.210;2023-08-12T11:47:37;1.58;;;1.13;;
56307;SDS011;42217;50.422;7.210;2023-08-12T11:50:08;2.33;;;1.02;;
56307;SDS011;42217;50.422;7.210;2023-08-12T11:52:39;3.20;;;0.80;;
56307;SDS011;42217;50.422;7.210;2023-08-12T11:55:05;1.77;;;1.02;;
56307;SDS011;42217;50.422;7.210;2023-08-12T11:57:32;2.13;;;1.27;;
56307;SDS011;42217;50.422;7.210;2023-08-12T12:00:05;2.88;;;1.00;;
56307;SDS011;42217;50.422;7.210;2023-08-12T12:02:56;2.75;;;1.30;;
56307;SDS011;42217;50.422;7.210;2023-08-12T12:05:23;1.90;;;1.13;;
56307;SDS011;42217;50.422;7.210;2023-08-12T12:07:51;1.55;;;1.35;;
56307;SDS011;42217;50.422;7.210;2023-08-12T12:10:18;2.38;;;1.02;;
56307;SDS011;42217;50.422;7.210;2023-08-12T12:12:55;1.70;;;0.80;;
56307;SDS011;42217;50.422;7.210;2023-08-12T12:15:21;3.58;;;1.10;;
56307;SDS011;42217;50.422;7.210;2023-08-12T12:17:47;3.63;;;1.42;;
56307;SDS011;42217;50.422;7.210;2023-08-12T12:20:14;1.92;;;0.80;;
56307;SDS011;42217;50.422;7.210;2023-08-12T12:22:41;1.30;;;0.63;;
56307;SDS011;42217;50.422;7.210;2023-08-12T12:25:09;6.60;;;0.70;;
56307;SDS011;42217;50.422;7.210;2023-08-12T12:27:37;2.80;;;0.90;;
56307;SDS011;42217;50.422;7.210;2023-08-12T12:30:04;1.38;;;0.77;;
56307;SDS011;42217;50.422;7.210;2023-08-12T12:32:34;2.00;;;0.88;;
56307;SDS011;42217;50.422;7.210;2023-08-12T12:35:00;1.55;;;0.55;;
56307;SDS011;42217;50.422;7.210;2023-08-12T12:37:26;3.45;;;0.63;;
56307;SDS011;42217;50.422;7.210;2023-08-12T12:39:52;2.47;;;0.60;;
56307;SDS011;42217;50.422;7.210;2023-08-12T12:42:18;1.15;;;0.63;;
56307;SDS011;42217;50.422;7.210;2023-08-12T12:44:44;4.13;;;0.80;;
56307;SDS011;42217;50.422;7.210;2023-08-12T12:47:09;1.05;;;0.80;;
56307;SDS011;42217;50.422;7.210;2023-08-12T12:49:37;2.83;;;0.75;;
56307;SDS011;42217;50.422;7.210;2023-08-12T12:52:09;1.85;;;0.95;;
56307;SDS011;42217;50.422;7.210;2023-08-12T12:54:34;1.42;;;0.63;;
56307;SDS011;42217;50.422;7.210;2023-08-12T12:57:00;3.25;;;0.55;;
56307;SDS011;42217;50.422;7.210;2023-08-12T12:59:26;1.27;;;0.90;;
56307;SDS011;42217;50.422;7.210;2023-08-12T13:01:52;3.78;;;0.65;;
56307;SDS011;42217;50.422;7.210;2023-08-12T13:04:18;2.83;;;0.80;;
56307;SDS011;42217;50.422;7.210;2023-08-12T13:06:44;1.52;;;0.88;;
56307;SDS011;42217;50.422;7.210;2023-08-12T13:09:10;2.47;;;0.85;;
56307;SDS011;42217;50.422;7.210;2023-08-12T13:11:35;1.88;;;0.77;;
56307;SDS011;42217;50.422;7.210;2023-08-12T13:14:02;2.15;;;0.75;;
56307;SDS011;42217;50.422;7.210;2023-08-12T13:16:28;1.98;;;1.10;;
56307;SDS011;42217;50.422;7.210;2023-08-12T13:18:54;1.98;;;0.95;;
56307;SDS011;42217;50.422;7.210;2023-08-12T13:21:20;2.20;;;0.93;;
56307;SDS011;42217;50.422;7.210;2023-08-12T13:23:46;1.55;;;0.88;;
56307;SDS011;42217;50.422;7.210;2023-08-12T13:26:12;2.67;;;0.80;;
56307;SDS011;42217;50.422;7.210;2023-08-12T13:28:38;1.27;;;0.73;;
56307;SDS011;42217;50.422;7.210;2023-08-12T13:31:03;1.80;;;0.95;;
56307;SDS011;42217;50.422;7.210;2023-08-12T13:33:29;1.55;;;0.77;;
56307;SDS011;42217;50.422;7.210;2023-08-12T13:35:54;1.40;;;0.82;;
56307;SDS011;42217;50.422;7.210;2023-08-12T13:38:20;2.05;;;1.35;;
56307;SDS011;42217;50.422;7.210;2023-08-12T13:40:46;1.52;;;0.80;;
56307;SDS011;42217;50.422;7.210;2023-08-12T13:43:11;1.73;;;0.93;;
56307;SDS011;42217;50.422;7.210;2023-08-12T13:45:37;0.95;;;0.80;;
56307;SDS011;42217;50.422;7.210;2023-08-12T13:48:03;1.45;;;0.80;;
56307;SDS011;42217;50.422;7.210;2023-08-12T13:50:29;1.08;;;0.70;;
56307;SDS011;42217;50.422;7.210;2023-08-12T13:52:57;2.15;;;0.70;;
56307;SDS011;42217;50.422;7.210;2023-08-12T13:55:23;0.80;;;0.60;;
56307;SDS011;42217;50.422;7.210;2023-08-12T13:57:50;1.63;;;0.95;;
56307;SDS011;42217;50.422;7.210;2023-08-12T14:00:15;2.17;;;0.70;;
56307;SDS011;42217;50.422;7.210;2023-08-12T14:02:41;0.98;;;0.50;;
56307;SDS011;42217;50.422;7.210;2023-08-12T14:05:07;1.05;;;0.70;;
56307;SDS011;42217;50.422;7.210;2023-08-12T14:07:33;2.13;;;0.90;;
56307;SDS011;42217;50.422;7.210;2023-08-12T14:09:59;1.75;;;0.80;;
56307;SDS011;42217;50.422;7.210;2023-08-12T14:12:25;3.28;;;0.63;;
56307;SDS011;42217;50.422;7.210;2023-08-12T14:14:51;3.20;;;0.73;;
56307;SDS011;42217;50.422;7.210;2023-08-12T14:17:16;2.35;;;1.05;;
56307;SDS011;42217;50.422;7.210;2023-08-12T14:19:44;1.95;;;0.88;;
56307;SDS011;42217;50.422;7.210;2023-08-12T14:22:12;3.47;;;0.93;;
56307;SDS011;42217;50.422;7.210;2023-08-12T14:24:38;3.13;;;0.88;;
56307;SDS011;42217;50.422;7.210;2023-08-12T14:27:04;2.95;;;1.15;;
56307;SDS011;42217;50.422;7.210;2023-08-12T14:29:31;1.45;;;0.88;;
56307;SDS011;42217;50.422;7.210;2023-08-12T14:31:57;3.33;;;0.75;;
56307;SDS011;42217;50.422;7.210;2023-08-12T14:34:23;2.55;;;1.05;;
56307;SDS011;42217;50.422;7.210;2023-08-12T14:36:49;1.52;;;1.00;;
56307;SDS011;42217;50.422;7.210;2023-08-12T14:39:15;2.13;;;1.02;;
56307;SDS011;42217;50.422;7.210;2023-08-12T14:41:40;4.32;;;1.48;;
56307;SDS011;42217;50.422;7.210;2023-08-12T14:44:06;4.97;;;0.80;;
56307;SDS011;42217;50.422;7.210;2023-08-12T14:46:32;1.65;;;0.73;;
56307;SDS011;42217;50.422;7.210;2023-08-12T14:48:57;3.42;;;0.90;;
56307;SDS011;42217;50.422;7.210;2023-08-12T14:51:23;3.00;;;1.15;;
56307;SDS011;42217;50.422;7.210;2023-08-12T14:53:49;4.22;;;0.77;;
56307;SDS011;42217;50.422;7.210;2023-08-12T14:56:15;1.27;;;0.40;;
56307;SDS011;42217;50.422;7.210;2023-08-12T14:58:41;2.75;;;0.50;;